首页
METAR-TAF:

METAR-TAF

机场 :

Pitt-Greenville Airport

格林维尔, 北卡罗来纳州, 美国

纬度: 35-38N, 经度: 077-24W, 海拔: 8米

当前天气观测

该预报发布于17分钟前的22:55 UTC
风速9节,风向
温度 16°C
湿度 77%
气压 1021 hPa
能見度: 16.1公里
多云层高于2500英尺
多云层高于3200英尺
多云层高于8000英尺

METAR: KPGV 232255Z AUTO 17009KT 10SM BKN025 BKN032 BKN080 16/12 A3016 RMK AO2

时间: 18:12 (23:12 UTC)

预报

该预报发布于5小时和52分钟前的17:20 UTC
预报有效从23日的 18点(UTC)到 24日的 18点(UTC)
风速12节,风向,有时为20节阵风
能見度: 10公里
散云层高于4000英尺
多云层高于7000英尺
从 24日的 0400点(UTC)
风速13节,风向,有时为23节阵风
能見度: 10公里
多云层高于4000英尺
从 24日的 1000点(UTC)
风速18节,风向南转西南,有时为27节阵风
能見度: 6.4公里
散云层高于1500英尺
阴天层高于3000英尺
阵雨
从 24日的 1600点(UTC)
风速15节,风向西转西南,有时为25节阵风
能見度: 10公里
阴天层高于2000英尺

TAF: KPGV 231720Z 2318/2418 18012G20KT P6SM SCT040 BKN070 FM240400 19013G23KT P6SM BKN040 WS020/18040KT FM241000 20018G27KT 4SM SHRA SCT015 OVC030 WS020/20050KT FM241600 24015G25KT P6SM OVC020 AMD LTD TO CLD VIS AND WIND

超过4000个机场的气象观测和天气预报(METAR&TAF报告)。

可查询的气象台以黄色和红色小点在地图上表示。

将鼠标移到小点上方,可查看气象台名称。

然后点击查看天气观测和预报。

如需切换地图:点击带黑十字的绿色按钮放大地图;点击带横线的绿色按钮缩小地图;或者点击绿色箭头查看邻近地区的地图。


METAR-TAF: